Terminal Aerodrome Forecast
Issued by NWS Albany, NY

Home | Current Version | Previous Version | Text Only | Print | Product List | Glossary On
Versions: 1 2 3 4 5 6 7 8 9 10 11 12 13 14 15 16
000
FTUS41 KALY 231100
TAFPOU
TAF
KPOU 231124Z 2312/2412 21006KT P6SM OVC060
     FM231500 22004KT P6SM BKN060
     FM231900 20005KT P6SM SCT060 SCT150
     FM232300 VRB03KT P6SM OVC060
     FM240500 15005KT 5SM -RA BR OVC035=

USA.gov is the U.S. government's official web portal to all federal, state and local government web resources and services.